sensor_id;sensor_type;location;lat;lon;timestamp;pressure;altitude;pressure_sealevel;temperature;humidity
43115;BME280;28727;50.068;14.452;2023-10-31T00:01:10;97188.75;;;14.43;79.48
43115;BME280;28727;50.068;14.452;2023-10-31T00:03:42;97179.91;;;14.37;79.36
43115;BME280;28727;50.068;14.452;2023-10-31T00:06:14;97173.41;;;14.33;80.04
43115;BME280;28727;50.068;14.452;2023-10-31T00:08:46;97170.53;;;14.34;79.87
43115;BME280;28727;50.068;14.452;2023-10-31T00:11:18;97165.22;;;14.34;80.20
43115;BME280;28727;50.068;14.452;2023-10-31T00:13:49;97174.78;;;14.35;80.16
43115;BME280;28727;50.068;14.452;2023-10-31T00:16:21;97177.25;;;14.37;79.88
43115;BME280;28727;50.068;14.452;2023-10-31T00:18:53;97169.47;;;14.35;79.69
43115;BME280;28727;50.068;14.452;2023-10-31T00:21:25;97180.91;;;14.36;80.26
43115;BME280;28727;50.068;14.452;2023-10-31T00:23:57;97171.09;;;14.37;79.94
43115;BME280;28727;50.068;14.452;2023-10-31T00:26:29;97171.34;;;14.35;79.71
43115;BME280;28727;50.068;14.452;2023-10-31T00:29:00;97176.66;;;14.35;79.90
43115;BME280;28727;50.068;14.452;2023-10-31T00:31:32;97171.34;;;14.35;79.77
43115;BME280;28727;50.068;14.452;2023-10-31T00:34:07;97174.00;;;14.35;79.88
43115;BME280;28727;50.068;14.452;2023-10-31T00:36:39;97176.41;;;14.37;79.89
43115;BME280;28727;50.068;14.452;2023-10-31T00:39:11;97175.03;;;14.34;79.76
43115;BME280;28727;50.068;14.452;2023-10-31T00:41:46;97171.34;;;14.35;79.76
43115;BME280;28727;50.068;14.452;2023-10-31T00:44:18;97167.88;;;14.34;80.24
43115;BME280;28727;50.068;14.452;2023-10-31T00:46:50;97183.81;;;14.34;79.84
43115;BME280;28727;50.068;14.452;2023-10-31T00:49:22;97215.38;;;14.31;80.20
43115;BME280;28727;50.068;14.452;2023-10-31T00:51:54;97211.09;;;14.30;80.45
43115;BME280;28727;50.068;14.452;2023-10-31T00:54:26;97195.13;;;14.25;80.57
43115;BME280;28727;50.068;14.452;2023-10-31T00:57:00;97217.63;;;14.22;81.06
43115;BME280;28727;50.068;14.452;2023-10-31T00:59:32;97212.56;;;14.21;81.05
43115;BME280;28727;50.068;14.452;2023-10-31T01:02:04;97223.44;;;14.19;81.46
43115;BME280;28727;50.068;14.452;2023-10-31T01:04:36;97229.53;;;14.20;81.74
43115;BME280;28727;50.068;14.452;2023-10-31T01:07:09;97218.69;;;14.21;81.97
43115;BME280;28727;50.068;14.452;2023-10-31T01:09:43;97218.91;;;14.20;81.51
43115;BME280;28727;50.068;14.452;2023-10-31T01:12:18;97228.50;;;14.21;81.68
43115;BME280;28727;50.068;14.452;2023-10-31T01:14:49;97240.50;;;14.23;81.27
43115;BME280;28727;50.068;14.452;2023-10-31T01:17:21;97243.44;;;14.27;81.36
43115;BME280;28727;50.068;14.452;2023-10-31T01:19:53;97224.63;;;14.28;80.76
43115;BME280;28727;50.068;14.452;2023-10-31T01:22:25;97213.69;;;14.25;81.09
43115;BME280;28727;50.068;14.452;2023-10-31T01:24:57;97208.94;;;14.27;81.20
43115;BME280;28727;50.068;14.452;2023-10-31T01:27:28;97209.72;;;14.27;81.08
43115;BME280;28727;50.068;14.452;2023-10-31T01:30:00;97214.00;;;14.28;80.57
43115;BME280;28727;50.068;14.452;2023-10-31T01:32:32;97222.53;;;14.30;80.33
43115;BME280;28727;50.068;14.452;2023-10-31T01:35:05;97229.19;;;14.33;80.37
43115;BME280;28727;50.068;14.452;2023-10-31T01:37:36;97228.16;;;14.34;80.11
43115;BME280;28727;50.068;14.452;2023-10-31T01:40:12;97227.09;;;14.35;80.11
43115;BME280;28727;50.068;14.452;2023-10-31T01:42:44;97238.53;;;14.35;80.18
43115;BME280;28727;50.068;14.452;2023-10-31T01:45:16;97226.88;;;14.37;80.50
43115;BME280;28727;50.068;14.452;2023-10-31T01:47:49;97233.03;;;14.37;80.39
43115;BME280;28727;50.068;14.452;2023-10-31T01:50:22;97240.16;;;14.37;80.39
43115;BME280;28727;50.068;14.452;2023-10-31T01:52:54;97241.00;;;14.37;80.13
43115;BME280;28727;50.068;14.452;2023-10-31T01:55:26;97242.81;;;14.37;80.46
43115;BME280;28727;50.068;14.452;2023-10-31T01:57:59;97252.41;;;14.38;80.43
43115;BME280;28727;50.068;14.452;2023-10-31T02:00:31;97266.72;;;14.37;80.38
43115;BME280;28727;50.068;14.452;2023-10-31T02:03:03;97256.94;;;14.37;80.24
43115;BME280;28727;50.068;14.452;2023-10-31T02:05:36;97265.34;;;14.34;80.29
43115;BME280;28727;50.068;14.452;2023-10-31T02:08:11;97269.53;;;14.30;80.34
43115;BME280;28727;50.068;14.452;2023-10-31T02:10:43;97257.06;;;14.30;80.38
43115;BME280;28727;50.068;14.452;2023-10-31T02:13:16;97265.28;;;14.29;80.65
43115;BME280;28727;50.068;14.452;2023-10-31T02:15:50;97267.69;;;14.30;81.13
43115;BME280;28727;50.068;14.452;2023-10-31T02:18:22;97270.34;;;14.30;81.85
43115;BME280;28727;50.068;14.452;2023-10-31T02:20:56;97280.97;;;14.30;82.06
43115;BME280;28727;50.068;14.452;2023-10-31T02:23:28;97285.72;;;14.28;82.45
43115;BME280;28727;50.068;14.452;2023-10-31T02:26:00;97282.75;;;14.25;82.23
43115;BME280;28727;50.068;14.452;2023-10-31T02:28:33;97285.06;;;14.21;82.58
43115;BME280;28727;50.068;14.452;2023-10-31T02:31:05;97277.59;;;14.18;82.84
43115;BME280;28727;50.068;14.452;2023-10-31T02:33:39;97281.53;;;14.16;83.15
43115;BME280;28727;50.068;14.452;2023-10-31T02:36:13;97286.84;;;14.16;83.48
43115;BME280;28727;50.068;14.452;2023-10-31T02:38:45;97286.25;;;14.14;83.94
43115;BME280;28727;50.068;14.452;2023-10-31T02:41:17;97293.91;;;14.10;83.90
43115;BME280;28727;50.068;14.452;2023-10-31T02:43:50;97305.84;;;14.08;84.19
43115;BME280;28727;50.068;14.452;2023-10-31T02:46:22;97309.78;;;14.05;84.67
43115;BME280;28727;50.068;14.452;2023-10-31T02:48:54;97313.22;;;14.06;85.43
43115;BME280;28727;50.068;14.452;2023-10-31T02:51:26;97313.00;;;14.07;85.27
43115;BME280;28727;50.068;14.452;2023-10-31T02:53:59;97312.19;;;14.07;85.56
43115;BME280;28727;50.068;14.452;2023-10-31T02:56:32;97309.78;;;14.05;85.25
43115;BME280;28727;50.068;14.452;2023-10-31T02:59:04;97310.81;;;14.04;85.17
43115;BME280;28727;50.068;14.452;2023-10-31T03:01:36;97314.28;;;14.05;84.88
43115;BME280;28727;50.068;14.452;2023-10-31T03:04:08;97321.13;;;14.01;85.20
43115;BME280;28727;50.068;14.452;2023-10-31T03:06:40;97311.78;;;13.98;85.71
43115;BME280;28727;50.068;14.452;2023-10-31T03:09:12;97316.28;;;13.98;85.60
43115;BME280;28727;50.068;14.452;2023-10-31T03:11:44;97323.69;;;13.96;85.81
43115;BME280;28727;50.068;14.452;2023-10-31T03:14:16;97334.53;;;13.94;85.71
43115;BME280;28727;50.068;14.452;2023-10-31T03:16:48;97333.97;;;13.92;86.10
43115;BME280;28727;50.068;14.452;2023-10-31T03:19:20;97336.06;;;13.90;86.27
43115;BME280;28727;50.068;14.452;2023-10-31T03:21:51;97352.78;;;13.90;86.25
43115;BME280;28727;50.068;14.452;2023-10-31T03:24:23;97363.41;;;13.90;85.87
43115;BME280;28727;50.068;14.452;2023-10-31T03:26:55;97357.91;;;13.80;86.90
43115;BME280;28727;50.068;14.452;2023-10-31T03:29:27;97362.31;;;13.75;86.65
43115;BME280;28727;50.068;14.452;2023-10-31T03:31:59;97358.31;;;13.72;87.44
43115;BME280;28727;50.068;14.452;2023-10-31T03:34:31;97369.47;;;13.74;87.32
43115;BME280;28727;50.068;14.452;2023-10-31T03:37:03;97373.75;;;13.75;86.88
43115;BME280;28727;50.068;14.452;2023-10-31T03:39:35;97368.13;;;13.72;86.80
43115;BME280;28727;50.068;14.452;2023-10-31T03:42:07;97377.25;;;13.64;87.15
43115;BME280;28727;50.068;14.452;2023-10-31T03:44:41;97372.31;;;13.56;88.50
43115;BME280;28727;50.068;14.452;2023-10-31T03:47:14;97372.31;;;13.56;88.40
43115;BME280;28727;50.068;14.452;2023-10-31T03:49:45;97368.84;;;13.56;88.39
43115;BME280;28727;50.068;14.452;2023-10-31T03:52:17;97379.16;;;13.52;88.91
43115;BME280;28727;50.068;14.452;2023-10-31T03:54:52;97368.31;;;13.53;89.00
43115;BME280;28727;50.068;14.452;2023-10-31T03:57:24;97363.56;;;13.56;88.77
43115;BME280;28727;50.068;14.452;2023-10-31T03:59:57;97361.16;;;13.54;88.84
43115;BME280;28727;50.068;14.452;2023-10-31T04:02:29;97364.63;;;13.55;88.82
43115;BME280;28727;50.068;14.452;2023-10-31T04:05:01;97372.56;;;13.55;88.41
43115;BME280;28727;50.068;14.452;2023-10-31T04:07:34;97376.00;;;13.55;88.52
43115;BME280;28727;50.068;14.452;2023-10-31T04:10:06;97379.47;;;13.56;88.13
43115;BME280;28727;50.068;14.452;2023-10-31T04:12:41;97383.19;;;13.55;88.70
43115;BME280;28727;50.068;14.452;2023-10-31T04:15:14;97389.28;;;13.55;88.32
43115;BME280;28727;50.068;14.452;2023-10-31T04:17:45;97379.47;;;13.56;88.65
43115;BME280;28727;50.068;14.452;2023-10-31T04:20:18;97378.66;;;13.55;87.65
43115;BME280;28727;50.068;14.452;2023-10-31T04:22:49;97375.34;;;13.48;87.75
43115;BME280;28727;50.068;14.452;2023-10-31T04:25:21;97385.38;;;13.46;88.75
43115;BME280;28727;50.068;14.452;2023-10-31T04:27:55;97381.13;;;13.45;89.50
43115;BME280;28727;50.068;14.452;2023-10-31T04:30:27;97373.97;;;13.45;88.72
43115;BME280;28727;50.068;14.452;2023-10-31T04:33:00;97380.09;;;13.46;88.54
43115;BME280;28727;50.068;14.452;2023-10-31T04:35:32;97378.94;;;13.42;88.73
43115;BME280;28727;50.068;14.452;2023-10-31T04:38:03;97382.63;;;13.41;89.40
43115;BME280;28727;50.068;14.452;2023-10-31T04:40:36;97384.00;;;13.43;89.08
43115;BME280;28727;50.068;14.452;2023-10-31T04:43:07;97384.47;;;13.40;89.13
43115;BME280;28727;50.068;14.452;2023-10-31T04:45:39;97385.19;;;13.36;89.16
43115;BME280;28727;50.068;14.452;2023-10-31T04:48:11;97387.84;;;13.36;89.19
43115;BME280;28727;50.068;14.452;2023-10-31T04:50:43;97394.50;;;13.38;88.97
43115;BME280;28727;50.068;14.452;2023-10-31T04:53:15;97380.94;;;13.35;89.24
43115;BME280;28727;50.068;14.452;2023-10-31T04:55:46;97388.06;;;13.34;89.64
43115;BME280;28727;50.068;14.452;2023-10-31T04:58:18;97388.88;;;13.35;89.19
43115;BME280;28727;50.068;14.452;2023-10-31T05:00:51;97395.22;;;13.34;89.50
43115;BME280;28727;50.068;14.452;2023-10-31T05:03:23;97407.09;;;13.31;89.43
43115;BME280;28727;50.068;14.452;2023-10-31T05:05:54;97417.69;;;13.31;88.95
43115;BME280;28727;50.068;14.452;2023-10-31T05:08:26;97410.81;;;13.30;89.58
43115;BME280;28727;50.068;14.452;2023-10-31T05:10:58;97414.59;;;13.34;89.63
43115;BME280;28727;50.068;14.452;2023-10-31T05:13:30;97416.75;;;13.37;89.35
43115;BME280;28727;50.068;14.452;2023-10-31T05:16:02;97422.66;;;13.39;88.91
43115;BME280;28727;50.068;14.452;2023-10-31T05:18:36;97431.75;;;13.43;88.37
43115;BME280;28727;50.068;14.452;2023-10-31T05:21:11;97436.13;;;13.38;88.50
43115;BME280;28727;50.068;14.452;2023-10-31T05:23:43;97445.38;;;13.35;88.21
43115;BME280;28727;50.068;14.452;2023-10-31T05:26:15;97446.63;;;13.33;88.50
43115;BME280;28727;50.068;14.452;2023-10-31T05:28:47;97446.19;;;13.36;88.71
43115;BME280;28727;50.068;14.452;2023-10-31T05:31:19;97449.66;;;13.36;88.41
43115;BME280;28727;50.068;14.452;2023-10-31T05:33:54;97454.97;;;13.36;88.46
43115;BME280;28727;50.068;14.452;2023-10-31T05:36:25;97460.00;;;13.38;88.31
43115;BME280;28727;50.068;14.452;2023-10-31T05:38:57;97477.53;;;13.39;87.85
43115;BME280;28727;50.068;14.452;2023-10-31T05:41:34;97486.53;;;13.38;88.01
43115;BME280;28727;50.068;14.452;2023-10-31T05:44:06;97486.78;;;13.36;87.77
43115;BME280;28727;50.068;14.452;2023-10-31T05:46:38;97487.59;;;13.37;87.91
43115;BME280;28727;50.068;14.452;2023-10-31T05:49:13;97487.22;;;13.33;87.94
43115;BME280;28727;50.068;14.452;2023-10-31T05:51:49;97501.06;;;13.35;87.46
43115;BME280;28727;50.068;14.452;2023-10-31T05:54:21;97506.81;;;13.32;87.58
43115;BME280;28727;50.068;14.452;2023-10-31T05:56:53;97513.16;;;13.31;87.96
43115;BME280;28727;50.068;14.452;2023-10-31T05:59:24;97517.44;;;13.32;87.71
43115;BME280;28727;50.068;14.452;2023-10-31T06:01:57;97512.50;;;13.36;87.00
43115;BME280;28727;50.068;14.452;2023-10-31T06:04:28;97513.03;;;13.38;86.89
43115;BME280;28727;50.068;14.452;2023-10-31T06:07:00;97508.22;;;13.35;87.24
43115;BME280;28727;50.068;14.452;2023-10-31T06:09:32;97513.53;;;13.35;87.37
43115;BME280;28727;50.068;14.452;2023-10-31T06:12:05;97524.94;;;13.35;86.83
43115;BME280;28727;50.068;14.452;2023-10-31T06:14:37;97529.22;;;13.36;86.60
43115;BME280;28727;50.068;14.452;2023-10-31T06:17:09;97540.38;;;13.38;86.29
43115;BME280;28727;50.068;14.452;2023-10-31T06:19:40;97544.31;;;13.36;86.05
43115;BME280;28727;50.068;14.452;2023-10-31T06:22:17;97552.81;;;13.38;85.46
43115;BME280;28727;50.068;14.452;2023-10-31T06:24:48;97559.31;;;13.42;85.42
43115;BME280;28727;50.068;14.452;2023-10-31T06:27:20;97576.03;;;13.42;85.43
43115;BME280;28727;50.068;14.452;2023-10-31T06:29:52;97582.59;;;13.40;85.42
43115;BME280;28727;50.068;14.452;2023-10-31T06:32:42;97580.16;;;13.38;84.92
43115;BME280;28727;50.068;14.452;2023-10-31T06:35:14;97592.59;;;13.38;84.53
43115;BME280;28727;50.068;14.452;2023-10-31T06:37:46;97589.50;;;13.41;84.31
43115;BME280;28727;50.068;14.452;2023-10-31T06:40:18;97588.81;;;13.45;84.02
43115;BME280;28727;50.068;14.452;2023-10-31T06:42:49;97597.34;;;13.47;83.59
43115;BME280;28727;50.068;14.452;2023-10-31T06:45:21;97603.47;;;13.48;83.12
43115;BME280;28727;50.068;14.452;2023-10-31T06:47:53;97603.91;;;13.45;82.46
43115;BME280;28727;50.068;14.452;2023-10-31T06:50:25;97604.28;;;13.48;81.50
43115;BME280;28727;50.068;14.452;2023-10-31T06:52:57;97613.63;;;13.51;81.35
43115;BME280;28727;50.068;14.452;2023-10-31T06:55:29;97626.44;;;13.54;80.95
43115;BME280;28727;50.068;14.452;2023-10-31T06:58:01;97634.38;;;13.54;80.73
43115;BME280;28727;50.068;14.452;2023-10-31T07:00:33;97629.91;;;13.55;80.32
43115;BME280;28727;50.068;14.452;2023-10-31T07:03:05;97634.13;;;13.56;80.28
43115;BME280;28727;50.068;14.452;2023-10-31T07:05:41;97631.59;;;13.49;79.49
43115;BME280;28727;50.068;14.452;2023-10-31T07:08:13;97637.25;;;13.52;79.03
43115;BME280;28727;50.068;14.452;2023-10-31T07:10:45;97639.44;;;13.56;78.45
43115;BME280;28727;50.068;14.452;2023-10-31T07:13:16;97645.22;;;13.52;77.94
43115;BME280;28727;50.068;14.452;2023-10-31T07:15:49;97655.63;;;13.54;77.20
43115;BME280;28727;50.068;14.452;2023-10-31T07:18:21;97654.81;;;13.53;76.97
43115;BME280;28727;50.068;14.452;2023-10-31T07:20:53;97657.47;;;13.53;76.46
43115;BME280;28727;50.068;14.452;2023-10-31T07:23:24;97652.16;;;13.53;76.48
43115;BME280;28727;50.068;14.452;2023-10-31T07:25:56;97661.72;;;13.55;76.37
43115;BME280;28727;50.068;14.452;2023-10-31T07:28:28;97656.53;;;13.60;76.39
43115;BME280;28727;50.068;14.452;2023-10-31T07:31:00;97669.34;;;13.63;75.67
43115;BME280;28727;50.068;14.452;2023-10-31T07:33:32;97661.97;;;13.65;74.82
43115;BME280;28727;50.068;14.452;2023-10-31T07:36:04;97676.03;;;13.65;74.15
43115;BME280;28727;50.068;14.452;2023-10-31T07:38:36;97685.25;;;13.63;73.97
43115;BME280;28727;50.068;14.452;2023-10-31T07:41:08;97701.28;;;13.56;73.48
43115;BME280;28727;50.068;14.452;2023-10-31T07:43:40;97713.16;;;13.53;73.83
43115;BME280;28727;50.068;14.452;2023-10-31T07:46:12;97713.97;;;13.54;73.79
43115;BME280;28727;50.068;14.452;2023-10-31T07:48:44;97721.69;;;13.56;74.26
43115;BME280;28727;50.068;14.452;2023-10-31T07:51:15;97722.28;;;13.58;74.11
43115;BME280;28727;50.068;14.452;2023-10-31T07:53:47;97715.34;;;13.57;74.61
43115;BME280;28727;50.068;14.452;2023-10-31T07:56:19;97717.19;;;13.56;74.65
43115;BME280;28727;50.068;14.452;2023-10-31T07:58:55;97712.69;;;13.57;74.65
43115;BME280;28727;50.068;14.452;2023-10-31T08:01:27;97703.13;;;13.56;75.03
43115;BME280;28727;50.068;14.452;2023-10-31T08:03:59;97702.91;;;13.57;74.74
43115;BME280;28727;50.068;14.452;2023-10-31T08:06:31;97700.63;;;13.61;74.65
43115;BME280;28727;50.068;14.452;2023-10-31T08:09:03;97698.06;;;13.66;74.83
43115;BME280;28727;50.068;14.452;2023-10-31T08:11:38;97699.91;;;13.65;75.12
43115;BME280;28727;50.068;14.452;2023-10-31T08:14:10;97708.59;;;13.72;75.23
43115;BME280;28727;50.068;14.452;2023-10-31T08:16:42;97698.53;;;13.86;73.96
43115;BME280;28727;50.068;14.452;2023-10-31T08:19:14;97688.97;;;13.97;72.93
43115;BME280;28727;50.068;14.452;2023-10-31T08:21:46;97685.03;;;13.99;72.29
43115;BME280;28727;50.068;14.452;2023-10-31T08:24:18;97717.72;;;14.00;70.85
43115;BME280;28727;50.068;14.452;2023-10-31T08:26:49;97735.25;;;14.01;70.91
43115;BME280;28727;50.068;14.452;2023-10-31T08:29:21;97749.56;;;14.00;70.15
43115;BME280;28727;50.068;14.452;2023-10-31T08:31:53;97776.56;;;13.97;69.79
43115;BME280;28727;50.068;14.452;2023-10-31T08:34:28;97793.41;;;13.90;69.25
43115;BME280;28727;50.068;14.452;2023-10-31T08:36:59;97811.16;;;13.78;68.18
43115;BME280;28727;50.068;14.452;2023-10-31T08:39:31;97818.97;;;13.73;69.26
43115;BME280;28727;50.068;14.452;2023-10-31T08:42:05;97835.59;;;13.69;69.40
43115;BME280;28727;50.068;14.452;2023-10-31T08:44:40;97835.25;;;13.65;68.60
43115;BME280;28727;50.068;14.452;2023-10-31T08:47:12;97828.09;;;13.66;68.02
43115;BME280;28727;50.068;14.452;2023-10-31T08:49:44;97830.16;;;13.64;67.64
43115;BME280;28727;50.068;14.452;2023-10-31T08:52:16;97829.22;;;13.58;68.14
43115;BME280;28727;50.068;14.452;2023-10-31T08:54:49;97837.59;;;13.55;68.50
43115;BME280;28727;50.068;14.452;2023-10-31T08:57:22;97848.22;;;13.55;68.27
43115;BME280;28727;50.068;14.452;2023-10-31T08:59:54;97848.81;;;13.57;68.21
43115;BME280;28727;50.068;14.452;2023-10-31T09:02:26;97849.41;;;13.59;68.56
43115;BME280;28727;50.068;14.452;2023-10-31T09:04:58;97852.88;;;13.60;67.49
43115;BME280;28727;50.068;14.452;2023-10-31T09:07:30;97836.22;;;13.52;67.39
43115;BME280;28727;50.068;14.452;2023-10-31T09:10:04;97835.84;;;13.49;66.66
43115;BME280;28727;50.068;14.452;2023-10-31T09:12:39;97844.19;;;13.52;67.55
43115;BME280;28727;50.068;14.452;2023-10-31T09:15:11;97844.19;;;13.52;67.12
43115;BME280;28727;50.068;14.452;2023-10-31T09:17:44;97857.31;;;13.47;66.94
43115;BME280;28727;50.068;14.452;2023-10-31T09:20:19;97878.75;;;13.46;66.35
43115;BME280;28727;50.068;14.452;2023-10-31T09:22:51;97875.22;;;13.52;66.69
43115;BME280;28727;50.068;14.452;2023-10-31T09:25:24;97864.13;;;13.55;66.62
43115;BME280;28727;50.068;14.452;2023-10-31T09:27:57;97855.63;;;13.53;66.45
43115;BME280;28727;50.068;14.452;2023-10-31T09:30:31;97862.53;;;13.54;66.88
43115;BME280;28727;50.068;14.452;2023-10-31T09:33:03;97857.94;;;13.61;66.55
43115;BME280;28727;50.068;14.452;2023-10-31T09:35:35;97846.28;;;13.62;66.06
43115;BME280;28727;50.068;14.452;2023-10-31T09:38:07;97846.66;;;13.66;65.91
43115;BME280;28727;50.068;14.452;2023-10-31T09:40:39;97855.44;;;13.66;65.63
43115;BME280;28727;50.068;14.452;2023-10-31T09:43:11;97841.94;;;13.68;65.84
43115;BME280;28727;50.068;14.452;2023-10-31T09:45:43;97844.63;;;13.79;66.09
43115;BME280;28727;50.068;14.452;2023-10-31T09:48:19;97832.44;;;13.90;65.15
43115;BME280;28727;50.068;14.452;2023-10-31T09:50:53;97829.91;;;13.95;64.83
43115;BME280;28727;50.068;14.452;2023-10-31T09:53:25;97823.00;;;14.06;64.75
43115;BME280;28727;50.068;14.452;2023-10-31T09:56:01;97821.63;;;14.15;64.12
43115;BME280;28727;50.068;14.452;2023-10-31T09:58:34;97823.47;;;14.14;63.86
43115;BME280;28727;50.068;14.452;2023-10-31T10:01:06;97818.31;;;14.31;63.78
43115;BME280;28727;50.068;14.452;2023-10-31T10:03:38;97818.09;;;14.44;62.56
43115;BME280;28727;50.068;14.452;2023-10-31T10:06:11;97817.66;;;14.47;61.82
43115;BME280;28727;50.068;14.452;2023-10-31T10:08:48;97816.94;;;14.52;61.95
43115;BME280;28727;50.068;14.452;2023-10-31T10:11:19;97830.34;;;14.68;61.50
43115;BME280;28727;50.068;14.452;2023-10-31T10:13:52;97837.38;;;14.74;60.52
43115;BME280;28727;50.068;14.452;2023-10-31T10:16:30;97838.09;;;14.70;60.26
43115;BME280;28727;50.068;14.452;2023-10-31T10:19:20;97822.03;;;14.77;60.05
43115;BME280;28727;50.068;14.452;2023-10-31T10:21:55;97824.56;;;14.83;60.20
43115;BME280;28727;50.068;14.452;2023-10-31T10:24:28;97818.31;;;14.78;59.73
43115;BME280;28727;50.068;14.452;2023-10-31T10:27:00;97811.16;;;14.78;60.21
43115;BME280;28727;50.068;14.452;2023-10-31T10:29:32;97815.09;;;14.75;59.52
43115;BME280;28727;50.068;14.452;2023-10-31T10:32:07;97824.56;;;14.71;59.43
43115;BME280;28727;50.068;14.452;2023-10-31T10:34:42;97834.38;;;14.71;59.82
43115;BME280;28727;50.068;14.452;2023-10-31T10:37:14;97835.75;;;14.73;59.38
43115;BME280;28727;50.068;14.452;2023-10-31T10:39:51;97843.84;;;14.67;58.79
43115;BME280;28727;50.068;14.452;2023-10-31T10:42:32;97838.53;;;14.67;59.47
43115;BME280;28727;50.068;14.452;2023-10-31T10:45:07;97836.47;;;14.57;59.69
43115;BME280;28727;50.068;14.452;2023-10-31T10:47:40;97831.84;;;14.53;59.38
43115;BME280;28727;50.068;14.452;2023-10-31T10:50:19;97823.88;;;14.53;60.29
43115;BME280;28727;50.068;14.452;2023-10-31T10:53:21;97796.16;;;14.49;59.03
43115;BME280;28727;50.068;14.452;2023-10-31T10:56:00;97816.13;;;14.40;59.18
43115;BME280;28727;50.068;14.452;2023-10-31T11:01:31;97880.41;;;14.18;59.18
43115;BME280;28727;50.068;14.452;2023-10-31T11:04:05;97893.91;;;14.17;59.21
43115;BME280;28727;50.068;14.452;2023-10-31T11:06:39;97905.13;;;14.19;59.33
43115;BME280;28727;50.068;14.452;2023-10-31T11:09:14;97910.28;;;14.14;60.04
43115;BME280;28727;50.068;14.452;2023-10-31T11:11:47;97912.94;;;14.14;60.00
43115;BME280;28727;50.068;14.452;2023-10-31T11:14:21;97915.59;;;14.14;59.52
43115;BME280;28727;50.068;14.452;2023-10-31T11:16:55;97908.44;;;14.14;59.60
43115;BME280;28727;50.068;14.452;2023-10-31T11:19:33;97912.03;;;14.20;59.74
43115;BME280;28727;50.068;14.452;2023-10-31T11:22:05;97921.38;;;14.11;60.01
43115;BME280;28727;50.068;14.452;2023-10-31T11:24:38;97919.19;;;14.08;60.09
43115;BME280;28727;50.068;14.452;2023-10-31T11:27:09;97925.66;;;14.12;60.50
43115;BME280;28727;50.068;14.452;2023-10-31T11:29:42;97941.47;;;14.07;60.24
43115;BME280;28727;50.068;14.452;2023-10-31T11:32:14;97962.91;;;14.05;60.67
43115;BME280;28727;50.068;14.452;2023-10-31T11:34:46;97960.94;;;14.01;61.00
43115;BME280;28727;50.068;14.452;2023-10-31T11:40:20;97946.03;;;14.00;61.89
43115;BME280;28727;50.068;14.452;2023-10-31T11:42:57;97941.75;;;13.99;62.13
43115;BME280;28727;50.068;14.452;2023-10-31T11:45:40;97921.34;;;13.99;61.97
43115;BME280;28727;50.068;14.452;2023-10-31T11:48:46;97930.94;;;14.00;62.16
43115;BME280;28727;50.068;14.452;2023-10-31T11:51:24;97939.91;;;13.99;62.23
43115;BME280;28727;50.068;14.452;2023-10-31T11:53:56;97937.56;;;13.91;62.56
43115;BME280;28727;50.068;14.452;2023-10-31T11:56:28;97935.72;;;13.91;62.54
43115;BME280;28727;50.068;14.452;2023-10-31T11:59:04;97956.00;;;13.86;62.99
43115;BME280;28727;50.068;14.452;2023-10-31T12:01:47;97954.03;;;13.81;62.67
43115;BME280;28727;50.068;14.452;2023-10-31T12:04:23;97945.25;;;13.81;63.01
43115;BME280;28727;50.068;14.452;2023-10-31T12:06:59;97960.50;;;13.85;63.15
43115;BME280;28727;50.068;14.452;2023-10-31T12:09:32;97954.63;;;13.83;63.04
43115;BME280;28727;50.068;14.452;2023-10-31T12:12:04;97960.97;;;13.82;63.03
43115;BME280;28727;50.068;14.452;2023-10-31T12:14:36;97955.28;;;13.79;63.29
43115;BME280;28727;50.068;14.452;2023-10-31T12:17:11;97969.81;;;13.76;62.71
43115;BME280;28727;50.068;14.452;2023-10-31T12:19:44;97976.16;;;13.75;62.74
43115;BME280;28727;50.068;14.452;2023-10-31T12:22:16;97978.06;;;13.68;62.50
43115;BME280;28727;50.068;14.452;2023-10-31T12:25:00;97969.97;;;13.63;62.34
43115;BME280;28727;50.068;14.452;2023-10-31T12:27:50;97957.59;;;13.57;62.53
43115;BME280;28727;50.068;14.452;2023-10-31T12:30:22;97956.22;;;13.55;62.58
43115;BME280;28727;50.068;14.452;2023-10-31T12:32:55;97957.09;;;13.48;62.62
43115;BME280;28727;50.068;14.452;2023-10-31T12:35:29;97956.72;;;13.45;62.51
43115;BME280;28727;50.068;14.452;2023-10-31T12:38:01;97970.19;;;13.43;62.47
43115;BME280;28727;50.068;14.452;2023-10-31T12:40:34;97965.47;;;13.45;62.38
43115;BME280;28727;50.068;14.452;2023-10-31T12:43:06;97974.09;;;13.41;62.97
43115;BME280;28727;50.068;14.452;2023-10-31T12:45:38;97962.91;;;13.39;62.75
43115;BME280;28727;50.068;14.452;2023-10-31T12:48:10;97953.97;;;13.33;62.83
43115;BME280;28727;50.068;14.452;2023-10-31T12:50:46;97960.75;;;13.29;62.78
43115;BME280;28727;50.068;14.452;2023-10-31T12:53:24;97966.63;;;13.31;63.12
43115;BME280;28727;50.068;14.452;2023-10-31T12:55:56;97972.34;;;13.35;62.89
43115;BME280;28727;50.068;14.452;2023-10-31T12:58:28;97970.91;;;13.32;62.78
43115;BME280;28727;50.068;14.452;2023-10-31T13:00:59;97981.91;;;13.36;63.24
43115;BME280;28727;50.068;14.452;2023-10-31T13:03:32;97971.66;;;13.39;62.86
43115;BME280;28727;50.068;14.452;2023-10-31T13:06:14;97962.31;;;13.37;62.88
43115;BME280;28727;50.068;14.452;2023-10-31T13:08:49;97955.41;;;13.36;62.42
43115;BME280;28727;50.068;14.452;2023-10-31T13:11:21;97958.88;;;13.36;62.28
43115;BME280;28727;50.068;14.452;2023-10-31T13:13:57;97951.53;;;13.32;62.69
43115;BME280;28727;50.068;14.452;2023-10-31T13:16:33;97944.19;;;13.34;62.59
43115;BME280;28727;50.068;14.452;2023-10-31T13:19:05;97935.63;;;13.32;62.61
43115;BME280;28727;50.068;14.452;2023-10-31T13:21:37;97931.94;;;13.33;62.66
43115;BME280;28727;50.068;14.452;2023-10-31T13:24:09;97922.97;;;13.34;62.25
43115;BME280;28727;50.068;14.452;2023-10-31T13:26:41;97915.22;;;13.32;62.42